الصفحة الرئيسية
METAR-TAF:

METAR-TAF

مطار :

مطار يو تاباو الدولي

باتايا-Rayong, تايلاند

دائرة عرض: 12-38N, خط طول: 101-21E, ارتفاع: 3 متر

مراقبة الطقس الحالي

تاريخ ووقت الإصدار 35 دقيقة قبل الساعة 22:30UTC
ريح 3 عقدة من الغرب/الجنوب الغربي
درجة الحرارة 28°درجة مئوية
الرطوبة 74%
ضغط 1006 hPa
الرؤية 10 كم أو أكثر
غيوم قليلة على ارتفاع 2000 قدم
غيوم متفرقة على ارتفاع 10000 قدم

METAR: VTBU 022230Z 25003KT 9999 FEW020 SCT100 28/23 Q1006 NOSIG

زمن: 06:05 (23:05 UTC)

توقعات

تاريخ ووقت الإصدار 6ساعات و 5 دقيقة قبل الساعة 17:00UTC
التوقعات صالحة من02 الساعة 18 UTC إلى 03 الساعة 18 UTC
ريح 6 عقدة من الغرب/الجنوب الغربي
الرؤية 10 كم أو أكثر
غيوم قليلة على ارتفاع 2000 قدم
غيوم متفرقة على ارتفاع 10000 قدم
مؤقت
من 03 الساعة 02 UTC إلى 03 الساعة 07 UTC
ريح 14 عقدةمن اتجاهات متغيرة
الرؤية: 5000 متر
غيوم قليلة على ارتفاع 1800 قدم, مزنة ركامية.
غيوم متفرقة على ارتفاع 3000 قدم
غيوم مفككة على ارتفاع 10000 قدم
عاصفة رعدية, مطر

TAF: VTBU 021700Z 0218/0318 24006KT 9999 FEW020 SCT100 TEMPO 0302/0307 VRB14KT 5000 TSRA FEW018CB SCT030 BKN100

أرصاد الطقس والتوقعات من أكثر من 4000 مطار (تقارير الطقس للمطار METAR والتنبؤ بالطقس بالمطارTAF).

المحطات المتاحة هي النقط الصفراء والحمراء على الخريطة.

حرك المؤشر فوق النقطة لمعرفة اسم المحطة.

ثم انقر لمعرفة أرصاد وتوقعات الطقس.

لتغيير الخارطة: اضغط على الأزرار الخضراء مع رمز الصليب الأسود للتكبير. على الزر الأخضر مع شرطة للتصغير، أو على الأسهم الخضراء للخرائط المجاورة.


METAR-TAF: